Time;durP1;ratioP1;P1;durP2;ratioP2;P2;SDS_P1;SDS_P2;PMS_P1;PMS_P2;Temp;Humidity;BMP_temperature;BMP_pressure;BME280_temperature;BME280_humidity;BME280_pressure;Samples;Min_cycle;Max_cycle;Signal;HPM_P1;HPM_P2
2022/05/21 00:02:20;;;;;;;2.17;0.80;;;;;;;22.13;48.74;101810.47;5075266;28;20112;-62
2022/05/21 00:04:45;;;;;;;1.33;0.80;;;;;;;22.12;48.81;101803.31;5075165;28;20050;-62
2022/05/21 00:07:10;;;;;;;1.90;1.35;;;;;;;22.12;48.39;101794.31;5076585;28;20032;-62
2022/05/21 00:09:36;;;;;;;1.73;0.80;;;;;;;22.12;48.52;101797.03;5085898;28;20033;-62
2022/05/21 00:12:02;;;;;;;2.10;0.98;;;;;;;22.12;48.53;101797.03;5077581;28;20528;-62
2022/05/21 00:14:27;;;;;;;2.42;1.25;;;;;;;22.10;48.66;101797.22;5077106;28;20033;-62
2022/05/21 00:16:52;;;;;;;2.80;0.90;;;;;;;22.10;48.55;101799.91;5085423;28;20108;-60
2022/05/21 00:19:18;;;;;;;1.95;1.00;;;;;;;22.10;48.46;101799.91;5086162;28;20051;-62
2022/05/21 00:21:43;;;;;;;1.15;0.82;;;;;;;22.09;48.47;101797.34;5085761;28;20032;-60
2022/05/21 00:24:08;;;;;;;1.25;0.75;;;;;;;22.06;48.41;101795.00;5086038;28;20481;-61
2022/05/21 00:26:33;;;;;;;1.60;1.00;;;;;;;22.08;48.28;101793.81;5085868;28;20032;-62
2022/05/21 00:28:59;;;;;;;1.35;0.70;;;;;;;22.08;48.36;101791.09;5086264;28;20052;-60
2022/05/21 00:31:24;;;;;;;1.80;0.80;;;;;;;22.07;48.37;101781.28;5072578;28;20454;-61
2022/05/21 00:33:50;;;;;;;1.17;0.70;;;;;;;22.05;48.30;101785.19;5081367;28;20040;-62
2022/05/21 00:36:16;;;;;;;2.42;0.90;;;;;;;22.05;48.07;101783.34;5077132;28;20032;-62
2022/05/21 00:38:42;;;;;;;1.52;0.90;;;;;;;22.07;48.34;101788.56;5077572;28;20043;-62
2022/05/21 00:41:09;;;;;;;1.23;0.85;;;;;;;22.06;48.25;101781.47;5076060;28;20112;-59
2022/05/21 00:43:48;;;;;;;2.33;0.95;;;;;;;22.06;48.23;101784.19;5085552;28;20021;-62
2022/05/21 00:46:20;;;;;;;2.92;1.27;;;;;;;22.05;48.36;101774.38;5084783;28;20028;-62
2022/05/21 00:48:55;;;;;;;1.17;0.95;;;;;;;22.05;48.23;101782.50;5085934;28;20044;-62
2022/05/21 00:51:25;;;;;;;1.50;0.70;;;;;;;22.04;48.25;101786.19;5084320;28;20033;-62
2022/05/21 00:53:53;;;;;;;1.63;0.82;;;;;;;22.04;48.27;101797.88;5084370;28;20040;-62
2022/05/21 00:56:20;;;;;;;1.38;0.77;;;;;;;22.03;48.21;101782.63;5075566;28;20068;-62
2022/05/21 01:01:35;;;;;;;2.15;0.70;;;;;;;22.02;48.21;101788.22;5076168;28;20039;-61
2022/05/21 01:04:00;;;;;;;;;;;;;;;22.02;47.95;101790.94;5085646;28;20059;-61
2022/05/21 01:06:25;;;;;;;1.15;0.70;;;;;;;22.01;48.12;101789.25;5085026;28;19917;-61
2022/05/21 01:08:50;;;;;;;1.30;0.70;;;;;;;21.99;48.00;101788.56;5085504;28;20066;-61
2022/05/21 01:11:17;;;;;;;1.65;0.80;;;;;;;;;;5076714;28;20036;-59
2022/05/21 01:13:44;;;;;;;1.88;0.98;;;;;;;;;;5076000;28;20059;-62
2022/05/21 01:16:10;;;;;;;1.95;0.80;;;;;;;;;;5081051;28;20059;-62
2022/05/21 01:18:35;;;;;;;1.10;0.70;;;;;;;21.96;47.87;101796.03;5084399;28;20052;-62
2022/05/21 01:21:02;;;;;;;2.97;1.70;;;;;;;21.95;48.42;101790.75;5079107;28;20032;-61
2022/05/21 01:23:27;;;;;;;0.75;0.60;;;;;;;21.95;48.29;101788.03;5082616;28;20035;-62
2022/05/21 01:25:54;;;;;;;1.35;0.70;;;;;;;21.95;48.00;101782.63;5084331;28;20036;-61
2022/05/21 01:28:22;;;;;;;1.98;1.17;;;;;;;21.94;47.94;101784.50;5084838;28;20035;-60
2022/05/21 01:30:53;;;;;;;0.93;0.80;;;;;;;21.94;47.81;101783.66;5077552;28;20036;-59
2022/05/21 01:33:22;;;;;;;1.00;0.65;;;;;;;21.94;48.13;101778.22;5082817;28;20036;-59
2022/05/21 01:35:47;;;;;;;;;;;;;;;21.93;48.00;101782.81;5077133;28;20111;-63
2022/05/21 01:38:14;;;;;;;1.13;0.80;;;;;;;21.92;47.92;101778.41;5077366;28;19913;-61
2022/05/21 01:40:40;;;;;;;1.05;0.73;;;;;;;21.90;48.08;101777.72;5084234;28;20060;-60
2022/05/21 01:46:09;;;;;;;1.45;0.80;;;;;;;21.90;47.94;101766.88;5059662;28;20025;-61
2022/05/21 01:48:35;;;;;;;1.65;0.70;;;;;;;21.89;48.03;101776.03;5053292;28;20025;-61
2022/05/21 01:51:00;;;;;;;1.73;0.77;;;;;;;21.89;48.06;101773.31;5056650;28;20037;-62
2022/05/21 01:53:27;;;;;;;1.45;0.70;;;;;;;21.88;47.91;101771.63;5049600;28;20069;-61
2022/05/21 01:55:53;;;;;;;1.75;0.90;;;;;;;21.89;47.81;101767.06;5037961;28;20029;-61
2022/05/21 01:58:18;;;;;;;1.08;0.70;;;;;;;21.87;47.98;101761.81;5053337;28;20501;-61
2022/05/21 02:00:44;;;;;;;1.65;0.80;;;;;;;21.86;47.84;101765.53;5034301;28;20137;-59
2022/05/21 02:03:11;;;;;;;1.77;0.73;;;;;;;21.87;48.13;101760.97;5041764;28;20040;-61
2022/05/21 02:05:37;;;;;;;0.85;0.70;;;;;;;21.87;47.84;101755.53;5041925;28;20069;-61
2022/05/21 02:08:03;;;;;;;1.33;0.80;;;;;;;21.81;47.87;101748.09;5060824;28;20092;-62
2022/05/21 02:10:28;;;;;;;2.28;1.10;;;;;;;21.86;47.65;101754.69;5053432;28;20049;-61
2022/05/21 02:12:53;;;;;;;1.20;0.85;;;;;;;21.87;47.86;101763.66;5032717;28;20087;-61
2022/05/21 02:15:19;;;;;;;2.50;1.00;;;;;;;21.86;47.58;101768.22;5041666;28;20025;-61
2022/05/21 02:17:44;;;;;;;1.95;0.70;;;;;;;21.85;47.92;101771.13;5071084;28;20041;-62
2022/05/21 02:20:10;;;;;;;1.13;0.70;;;;;;;21.85;47.80;101773.81;5079024;28;20032;-62
2022/05/21 02:22:36;;;;;;;1.02;0.85;;;;;;;21.82;47.88;101772.28;5080572;28;20026;-62
2022/05/21 02:25:03;;;;;;;3.08;0.95;;;;;;;21.84;47.85;101770.28;5075717;28;20020;-62
2022/05/21 02:27:29;;;;;;;1.55;0.70;;;;;;;21.84;47.96;101777.56;5075502;28;20028;-62
2022/05/21 02:29:54;;;;;;;1.80;0.82;;;;;;;21.84;47.97;101774.84;5072566;28;20745;-62
2022/05/21 02:32:19;;;;;;;2.00;0.90;;;;;;;21.83;47.41;101778.53;5071734;28;20032;-62
2022/05/21 02:34:44;;;;;;;0.95;0.68;;;;;;;21.82;47.89;101769.59;5081010;28;20444;-62
2022/05/21 02:39:53;;;;;;;1.52;0.80;;;;;;;21.82;47.79;101774.16;5081610;28;20059;-62
2022/05/21 02:45:04;;;;;;;1.85;0.80;;;;;;;21.80;47.92;101774.34;5083096;28;20573;-62
2022/05/21 02:47:29;;;;;;;1.00;0.70;;;;;;;21.80;47.96;101781.59;5081192;28;20036;-62
2022/05/21 02:49:55;;;;;;;1.02;0.63;;;;;;;21.79;47.66;101779.91;5082827;28;20039;-62
2022/05/21 02:52:20;;;;;;;1.00;0.63;;;;;;;21.78;47.71;101779.06;5078396;28;20551;-62
2022/05/21 02:54:45;;;;;;;1.10;0.70;;;;;;;21.78;47.70;101773.63;5083080;28;20493;-62
2022/05/21 02:57:11;;;;;;;1.98;0.95;;;;;;;21.78;47.53;101775.50;5083008;28;20090;-62
2022/05/21 02:59:37;;;;;;;1.10;0.60;;;;;;;21.77;47.55;101777.38;5075926;28;20033;-62
2022/05/21 03:02:03;;;;;;;1.30;0.90;;;;;;;21.78;47.60;101770.09;5079075;28;20068;-62
2022/05/21 03:04:28;;;;;;;0.80;0.70;;;;;;;21.77;47.74;101768.41;5078041;28;20060;-62
2022/05/21 03:06:54;;;;;;;0.98;0.65;;;;;;;21.76;47.41;101778.38;5074107;28;20032;-61
2022/05/21 03:12:04;;;;;;;1.40;0.73;;;;;;;21.73;47.89;101767.03;5082121;28;20093;-62
2022/05/21 03:14:29;;;;;;;1.48;0.88;;;;;;;21.76;47.58;101780.25;5083253;28;20029;-62
2022/05/21 03:16:59;;;;;;;1.60;0.90;;;;;;;21.75;47.66;101778.53;5081417;28;20035;-62
2022/05/21 03:19:24;;;;;;;1.15;0.77;;;;;;;21.74;47.66;101771.44;5083246;28;20054;-61
2022/05/21 03:21:49;;;;;;;1.05;0.70;;;;;;;21.73;47.66;101770.59;5073923;28;20048;-60
2022/05/21 03:24:15;;;;;;;0.98;0.60;;;;;;;21.73;47.56;101770.59;5083006;28;20025;-61
2022/05/21 03:26:40;;;;;;;1.83;0.80;;;;;;;21.73;47.43;101776.00;5075040;28;20041;-62
2022/05/21 03:29:05;;;;;;;1.92;0.90;;;;;;;21.73;47.66;101769.75;5081759;28;20029;-61
2022/05/21 03:31:30;;;;;;;1.70;0.70;;;;;;;21.73;47.70;101775.16;5082373;28;20025;-62
2022/05/21 03:33:56;;;;;;;1.40;0.70;;;;;;;21.72;47.36;101782.44;5074365;28;20468;-61
2022/05/21 03:36:21;;;;;;;1.35;0.65;;;;;;;21.71;47.33;101772.63;5082912;28;20043;-61
2022/05/21 03:38:46;;;;;;;1.30;0.75;;;;;;;21.71;47.44;101773.47;5074580;28;20077;-62
2022/05/21 03:41:11;;;;;;;1.73;1.00;;;;;;;21.70;47.54;101774.47;5074394;28;20130;-62
2022/05/21 03:43:37;;;;;;;2.30;0.90;;;;;;;21.65;47.48;101768.72;5082491;28;20037;-62
2022/05/21 03:46:04;;;;;;;1.20;0.68;;;;;;;21.69;47.67;101777.34;5081909;28;20044;-62
2022/05/21 03:48:29;;;;;;;1.92;0.80;;;;;;;21.68;47.43;101776.50;5074175;28;20083;-63
2022/05/21 03:50:54;;;;;;;1.23;0.70;;;;;;;21.69;47.74;101782.75;5082696;28;20081;-62
2022/05/21 03:53:20;;;;;;;1.35;0.60;;;;;;;21.68;47.57;101781.06;5082072;28;20032;-61
2022/05/21 03:55:45;;;;;;;1.48;1.00;;;;;;;21.68;47.60;101786.47;5074377;28;20583;-61
2022/05/21 03:58:11;;;;;;;1.17;0.82;;;;;;;21.67;47.46;101782.09;5074429;28;20520;-62
2022/05/21 04:00:38;;;;;;;1.65;1.00;;;;;;;21.60;47.60;101770.22;5083006;28;20032;-62
2022/05/21 04:03:04;;;;;;;2.03;0.73;;;;;;;21.67;47.63;101787.50;5081838;28;20536;-61
2022/05/21 04:05:29;;;;;;;1.20;0.80;;;;;;;21.67;47.40;101782.94;5074271;28;20024;-62
2022/05/21 04:07:54;;;;;;;1.08;0.77;;;;;;;21.63;47.23;101778.03;5082569;28;20043;-62
2022/05/21 04:10:20;;;;;;;1.48;0.63;;;;;;;21.67;47.27;101791.06;5081591;28;20068;-62
2022/05/21 04:12:45;;;;;;;0.93;0.80;;;;;;;21.65;47.39;101789.50;5082256;28;20054;-62
2022/05/21 04:15:11;;;;;;;3.03;1.00;;;;;;;21.64;47.77;101782.41;5072889;28;20088;-61
2022/05/21 04:17:37;;;;;;;1.00;0.65;;;;;;;21.63;47.25;101797.81;5073363;28;20122;-61
2022/05/21 04:20:05;;;;;;;1.65;0.80;;;;;;;21.64;47.53;101801.34;5079111;28;20532;-61
2022/05/21 04:22:30;;;;;;;1.30;0.88;;;;;;;21.62;47.29;101803.38;5074290;28;20477;-62
2022/05/21 04:24:55;;;;;;;1.25;0.70;;;;;;;21.61;47.68;101799.81;5082318;28;20111;-62
2022/05/21 04:27:20;;;;;;;2.33;0.80;;;;;;;21.64;47.60;101804.91;5081751;28;20092;-60
2022/05/21 04:29:46;;;;;;;2.50;0.90;;;;;;;21.64;47.46;101801.34;5077605;28;20092;-61
2022/05/21 04:32:11;;;;;;;1.63;0.90;;;;;;;21.66;47.20;101807.44;5084712;28;20036;-61
2022/05/21 04:34:36;;;;;;;1.40;0.70;;;;;;;21.66;47.29;101810.16;5084823;28;20032;-60
2022/05/21 04:37:01;;;;;;;1.40;0.73;;;;;;;21.54;47.25;101782.56;5079151;28;20036;-61
2022/05/21 04:39:27;;;;;;;2.60;0.80;;;;;;;21.68;47.47;101810.84;5083695;28;20099;-61
2022/05/21 04:41:52;;;;;;;2.72;1.08;;;;;;;21.68;47.20;101806.28;5081917;28;20020;-61
2022/05/21 04:44:18;;;;;;;1.40;0.80;;;;;;;21.67;47.57;101815.41;5082689;28;20021;-61
2022/05/21 04:46:43;;;;;;;2.38;0.90;;;;;;;21.64;47.55;101810.31;5082286;28;20029;-60
2022/05/21 04:49:08;;;;;;;2.70;0.90;;;;;;;21.63;47.34;101816.75;5082625;28;20039;-61
2022/05/21 04:51:36;;;;;;;1.73;0.90;;;;;;;21.66;47.71;101827.25;5081347;28;20032;-61
2022/05/21 04:54:01;;;;;;;1.60;0.70;;;;;;;21.67;47.57;101822.69;5078513;28;20051;-61
2022/05/21 04:56:26;;;;;;;3.40;0.90;;;;;;;21.66;47.48;101827.25;5078966;28;20197;-61
2022/05/21 04:58:52;;;;;;;1.70;0.70;;;;;;;21.67;47.74;101828.94;5078483;28;20047;-62
2022/05/21 05:01:17;;;;;;;1.50;0.80;;;;;;;21.68;47.59;101840.63;5080196;28;20697;-60
2022/05/21 05:03:42;;;;;;;1.77;0.82;;;;;;;21.65;47.72;101830.09;5082323;28;20377;-59
2022/05/21 05:06:08;;;;;;;2.45;1.02;;;;;;;21.68;47.68;101835.19;5076836;28;20035;-61
2022/05/21 05:08:34;;;;;;;1.88;1.02;;;;;;;21.67;47.78;101847.06;5079322;28;20522;-61
2022/05/21 05:10:59;;;;;;;1.83;1.02;;;;;;;21.67;47.51;101847.91;5077107;28;20052;-61
2022/05/21 05:13:24;;;;;;;2.17;0.90;;;;;;;21.67;47.88;101847.06;5078000;28;20043;-61
2022/05/21 05:15:50;;;;;;;1.25;0.70;;;;;;;21.65;47.85;101846.34;5081888;28;20017;-61
2022/05/21 05:18:17;;;;;;;2.00;1.15;;;;;;;21.68;47.66;101846.03;5075396;28;20021;-60
2022/05/21 05:20:43;;;;;;;1.55;0.65;;;;;;;21.67;47.66;101847.06;5081863;28;20029;-60
2022/05/21 05:23:08;;;;;;;1.20;0.80;;;;;;;21.69;47.98;101853.97;5079464;28;20035;-61
2022/05/21 05:25:34;;;;;;;1.98;0.88;;;;;;;21.68;47.69;101849.59;5080727;28;20013;-61
2022/05/21 05:28:00;;;;;;;2.90;1.02;;;;;;;21.67;47.52;101858.72;5083554;28;20396;-59
2022/05/21 05:30:25;;;;;;;2.78;1.05;;;;;;;21.68;47.79;101870.38;5079559;28;20488;-61
2022/05/21 05:32:51;;;;;;;1.83;0.80;;;;;;;21.67;47.97;101863.28;5081533;28;20012;-61
2022/05/21 05:35:16;;;;;;;2.30;0.80;;;;;;;21.67;48.08;101868.69;5081767;28;20044;-62
2022/05/21 05:37:42;;;;;;;2.45;1.00;;;;;;;21.61;48.17;101853.09;5079035;28;20432;-61
2022/05/21 05:40:12;;;;;;;3.05;1.15;;;;;;;21.67;48.00;101858.72;5082204;28;20063;-61
2022/05/21 05:42:38;;;;;;;2.45;0.90;;;;;;;21.67;47.88;101866.84;5081408;28;20555;-61
2022/05/21 05:45:05;;;;;;;1.90;1.00;;;;;;;21.67;48.16;101857.88;5081848;28;20112;-62
2022/05/21 05:47:31;;;;;;;2.88;1.00;;;;;;;21.67;48.16;101858.72;5076407;28;20024;-63
2022/05/21 05:49:57;;;;;;;2.90;1.02;;;;;;;21.66;48.15;101861.56;5077214;28;20880;-62
2022/05/21 05:52:23;;;;;;;2.95;1.25;;;;;;;21.69;48.28;101872.06;5075688;28;20024;-61
2022/05/21 05:54:48;;;;;;;1.85;0.90;;;;;;;21.69;47.99;101866.66;5083370;28;20048;-61
2022/05/21 05:57:13;;;;;;;3.15;1.10;;;;;;;21.69;48.34;101870.22;5079000;28;20466;-61
2022/05/21 05:59:48;;;;;;;3.10;1.20;;;;;;;21.66;47.98;101867.84;5079839;28;20020;-62
2022/05/21 06:04:57;;;;;;;2.72;1.17;;;;;;;21.70;48.05;101871.06;5082211;28;20095;-61
2022/05/21 06:07:23;;;;;;;5.72;1.00;;;;;;;21.68;48.06;101867.69;5083436;28;20036;-61
2022/05/21 06:09:49;;;;;;;2.35;0.95;;;;;;;21.68;47.90;101871.22;5084354;28;20036;-61
2022/05/21 06:12:14;;;;;;;3.83;1.38;;;;;;;21.69;48.05;101875.63;5082660;28;20036;-61
2022/05/21 06:14:41;;;;;;;1.63;0.98;;;;;;;21.66;48.11;101885.94;5082969;28;20409;-61
2022/05/21 06:17:07;;;;;;;3.38;1.20;;;;;;;21.69;48.14;101889.16;5083081;28;20036;-61
2022/05/21 06:19:32;;;;;;;3.97;1.20;;;;;;;21.68;48.31;101895.59;5083681;28;20033;-61
2022/05/21 06:21:59;;;;;;;2.47;1.00;;;;;;;21.64;48.09;101888.81;5083752;28;20123;-61
2022/05/21 06:24:24;;;;;;;3.25;1.25;;;;;;;21.68;48.18;101892.88;5082946;28;20012;-61
2022/05/21 06:26:49;;;;;;;2.92;1.08;;;;;;;21.69;48.28;101902.69;5083339;28;20109;-61
2022/05/21 06:29:14;;;;;;;1.95;1.05;;;;;;;21.69;48.02;101893.72;5083832;28;20040;-60
2022/05/21 06:31:40;;;;;;;3.95;1.17;;;;;;;21.69;48.07;101893.72;5077288;28;20028;-61
2022/05/21 06:34:05;;;;;;;4.38;1.10;;;;;;;21.69;48.25;101900.00;5063997;28;20087;-61
2022/05/21 06:36:30;;;;;;;4.13;1.38;;;;;;;21.70;48.01;101911.66;5070605;28;20024;-60
2022/05/21 06:38:56;;;;;;;2.65;1.10;;;;;;;21.69;48.07;101907.25;5083020;28;20140;-60
2022/05/21 06:41:21;;;;;;;3.42;1.00;;;;;;;21.69;48.20;101915.38;5084104;28;20487;-61
2022/05/21 06:43:46;;;;;;;3.70;1.20;;;;;;;21.68;48.03;101906.41;5079736;28;20474;-61
2022/05/21 06:46:11;;;;;;;4.63;1.55;;;;;;;21.68;48.13;101909.13;5090756;28;20050;-61
2022/05/21 06:48:37;;;;;;;1.88;0.88;;;;;;;21.67;47.85;101906.59;5100700;28;20119;-60
2022/05/21 06:51:05;;;;;;;2.35;1.10;;;;;;;21.69;48.15;101904.56;5083163;28;20107;-60
2022/05/21 06:53:32;;;;;;;4.47;1.10;;;;;;;21.68;47.93;101914.53;5082824;28;20090;-61
2022/05/21 06:55:57;;;;;;;2.20;0.90;;;;;;;21.67;47.78;101910.16;5083122;28;20037;-60
2022/05/21 06:58:22;;;;;;;3.53;1.00;;;;;;;21.63;47.83;101910.63;5078327;28;20154;-60
2022/05/21 07:00:47;;;;;;;3.30;1.00;;;;;;;21.69;48.05;101926.22;5083723;28;20142;-60
2022/05/21 07:03:13;;;;;;;2.25;0.90;;;;;;;21.69;47.82;101918.94;5067944;28;20082;-60
2022/05/21 07:08:24;;;;;;;3.63;1.38;;;;;;;21.70;47.86;101919.78;5065828;28;20094;-60
2022/05/21 07:10:51;;;;;;;3.30;1.20;;;;;;;21.69;47.77;101912.69;5083472;28;20048;-60
2022/05/21 07:13:17;;;;;;;4.20;0.90;;;;;;;21.71;47.86;101924.19;5083444;28;20058;-60
2022/05/21 07:15:43;;;;;;;3.45;1.20;;;;;;;21.71;47.82;101925.06;5083255;28;20025;-60
2022/05/21 07:18:08;;;;;;;3.22;1.10;;;;;;;21.71;47.82;101927.75;5077138;28;20044;-61
2022/05/21 07:20:33;;;;;;;2.97;1.23;;;;;;;21.72;47.72;101931.31;5063592;28;20089;-61
2022/05/21 07:23:00;;;;;;;3.58;1.58;;;;;;;21.71;47.67;101932.31;5081957;28;20039;-61
2022/05/21 07:25:27;;;;;;;2.78;1.13;;;;;;;21.72;47.58;101925.91;5077389;28;20422;-61
2022/05/21 07:27:53;;;;;;;1.80;1.00;;;;;;;21.72;47.72;101928.59;5078249;28;20062;-60
2022/05/21 07:30:18;;;;;;;3.75;1.60;;;;;;;21.73;47.68;101926.75;5082267;28;20036;-61
2022/05/21 07:32:44;;;;;;;4.88;1.08;;;;;;;21.73;47.55;101938.41;5082497;28;20714;-61
2022/05/21 07:35:12;;;;;;;3.92;1.42;;;;;;;21.72;47.56;101944.84;5083218;28;20062;-61
2022/05/21 07:37:38;;;;;;;2.92;1.08;;;;;;;21.71;47.79;101944.00;5082876;28;20031;-61
2022/05/21 07:40:05;;;;;;;2.65;1.05;;;;;;;21.72;47.81;101950.25;5083500;28;20493;-61
2022/05/21 07:42:30;;;;;;;4.07;1.17;;;;;;;21.71;47.63;101946.69;5077846;28;20033;-61
2022/05/21 07:44:59;;;;;;;2.58;1.00;;;;;;;21.71;47.92;101944.00;5077743;28;20053;-61
2022/05/21 07:47:25;;;;;;;2.10;0.80;;;;;;;21.66;47.69;101946.34;5091518;28;20074;-61
2022/05/21 07:49:52;;;;;;;3.92;1.20;;;;;;;21.71;47.74;101951.28;5083391;28;20024;-61
2022/05/21 07:52:18;;;;;;;3.25;1.08;;;;;;;21.71;47.68;101968.34;5081451;28;20036;-61
2022/05/21 07:54:43;;;;;;;2.47;1.02;;;;;;;21.73;47.49;101953.81;5082930;28;20052;-61
2022/05/21 07:57:08;;;;;;;4.05;1.27;;;;;;;21.73;47.54;101959.22;5082226;28;20040;-61
2022/05/21 07:59:33;;;;;;;1.83;0.90;;;;;;;21.74;47.81;101982.56;5082932;28;20064;-61
2022/05/21 08:01:59;;;;;;;4.72;1.23;;;;;;;21.73;47.63;101953.81;5082117;28;20055;-61
2022/05/21 08:04:24;;;;;;;3.17;1.10;;;;;;;21.75;47.40;101965.31;5084981;28;20020;-61
2022/05/21 08:06:49;;;;;;;1.73;0.90;;;;;;;21.76;47.79;101964.31;5086855;28;20021;-61
2022/05/21 08:09:14;;;;;;;4.43;1.25;;;;;;;21.75;47.64;101958.06;5086895;28;20032;-61
2022/05/21 08:11:40;;;;;;;3.72;1.38;;;;;;;21.77;47.44;101969.56;5086682;28;20492;-61
2022/05/21 08:14:05;;;;;;;2.47;1.15;;;;;;;21.78;47.63;101965.84;5078744;28;20032;-60
2022/05/21 08:16:31;;;;;;;4.70;1.50;;;;;;;21.78;47.59;101973.09;5084276;28;20115;-61
2022/05/21 08:18:57;;;;;;;3.33;1.50;;;;;;;21.74;47.46;101961.75;5074389;28;20115;-60
2022/05/21 08:21:24;;;;;;;4.90;1.58;;;;;;;21.80;47.24;101963.84;5080164;28;20059;-61
2022/05/21 08:29:17;;;;;;;2.90;1.55;;;;;;;21.82;47.54;101966.38;5081210;28;20039;-61
2022/05/21 08:31:42;;;;;;;2.35;1.42;;;;;;;21.82;47.49;101966.38;5079522;28;20061;-61
2022/05/21 08:34:08;;;;;;;3.28;1.17;;;;;;;21.82;47.23;101980.75;5066462;28;20045;-60
2022/05/21 08:36:33;;;;;;;3.15;1.33;;;;;;;21.83;47.31;101987.00;5073382;28;20063;-61
2022/05/21 08:38:58;;;;;;;4.63;1.30;;;;;;;21.83;47.37;101981.59;5084422;28;20032;-61
2022/05/21 08:41:27;;;;;;;1.80;1.20;;;;;;;21.82;47.39;101980.75;5086547;28;20036;-61
2022/05/21 08:43:55;;;;;;;2.83;1.23;;;;;;;21.83;47.41;101987.84;5085838;28;20024;-61
2022/05/21 08:46:38;;;;;;;2.97;1.23;;;;;;;21.83;47.16;101990.56;5089627;28;20086;-60
2022/05/21 08:49:15;;;;;;;3.88;1.27;;;;;;;21.83;47.12;101985.13;5086393;28;20036;-61
2022/05/21 08:51:48;;;;;;;3.63;1.10;;;;;;;21.85;47.48;102003.94;5077452;28;20678;-61
2022/05/21 08:54:15;;;;;;;4.38;1.15;;;;;;;21.82;47.36;101996.16;5084170;28;20084;-61
2022/05/21 08:56:41;;;;;;;3.50;1.42;;;;;;;21.85;47.19;102010.22;5081628;28;20107;-61
2022/05/21 08:59:08;;;;;;;3.60;1.10;;;;;;;21.85;47.53;102002.09;5075305;28;20556;-61
2022/05/21 09:01:37;;;;;;;4.05;1.00;;;;;;;21.87;47.16;101991.09;5067844;28;20028;-60
2022/05/21 09:04:03;;;;;;;4.30;1.52;;;;;;;21.81;47.05;101984.47;5083720;28;20028;-60
2022/05/21 09:06:51;;;;;;;2.80;1.13;;;;;;;21.87;47.20;102000.06;5085744;28;20080;-60
2022/05/21 09:09:30;;;;;;;3.28;1.45;;;;;;;21.84;47.36;101989.56;5084462;28;20048;-61
2022/05/21 09:12:01;;;;;;;2.95;1.08;;;;;;;21.88;47.30;101981.97;5077739;28;20037;-61
2022/05/21 09:14:42;;;;;;;1.45;0.82;;;;;;;21.87;47.35;101989.22;5064294;28;20041;-61
2022/05/21 09:17:13;;;;;;;2.38;1.17;;;;;;;21.86;47.35;101987.53;5063564;28;20559;-61
2022/05/21 09:19:42;;;;;;;4.65;1.48;;;;;;;21.86;47.45;101984.81;5065909;28;20032;-61
2022/05/21 09:22:10;;;;;;;4.35;1.23;;;;;;;21.87;47.42;101988.38;5064788;28;20025;-61
2022/05/21 09:24:41;;;;;;;3.78;1.20;;;;;;;21.85;47.22;101987.72;5082199;28;20031;-61
2022/05/21 09:27:27;;;;;;;3.40;1.00;;;;;;;21.83;47.33;101987.84;5085206;28;20029;-61
2022/05/21 09:30:09;;;;;;;3.70;1.30;;;;;;;21.83;47.28;101989.72;5079629;28;20021;-61
2022/05/21 09:32:35;;;;;;;3.50;1.13;;;;;;;21.80;47.15;101993.59;5085008;28;20426;-61
2022/05/21 09:35:06;;;;;;;2.53;0.98;;;;;;;21.82;47.26;101988.03;5084855;28;20032;-60
2022/05/21 09:37:32;;;;;;;5.65;1.40;;;;;;;21.83;47.14;101987.00;5085140;28;20063;-61
2022/05/21 09:39:58;;;;;;;4.13;1.25;;;;;;;21.80;47.46;101984.66;5084140;28;20029;-61
2022/05/21 09:45:26;;;;;;;4.70;1.55;;;;;;;21.81;47.27;101987.19;5084021;28;20173;-60
2022/05/21 09:48:03;;;;;;;2.22;1.20;;;;;;;21.81;47.13;101995.31;5084375;28;20032;-61
2022/05/21 09:50:30;;;;;;;2.50;0.98;;;;;;;21.81;47.39;101984.47;5085349;28;20083;-61
2022/05/21 09:52:55;;;;;;;5.57;1.83;;;;;;;21.80;47.15;101988.19;5084758;28;20025;-61
2022/05/21 09:55:29;;;;;;;3.50;1.30;;;;;;;21.81;47.30;101992.59;5083337;28;20654;-61
2022/05/21 09:58:07;;;;;;;4.63;1.23;;;;;;;21.81;47.42;101992.59;5083877;28;20064;-61
2022/05/21 10:00:34;;;;;;;3.40;1.10;;;;;;;21.69;47.30;101964.09;5085109;28;20024;-61
2022/05/21 10:03:02;;;;;;;2.95;1.10;;;;;;;21.80;47.58;101988.19;5074069;28;20061;-61
2022/05/21 10:05:30;;;;;;;2.45;1.13;;;;;;;21.85;47.13;101993.97;5063420;28;20051;-61
2022/05/21 10:11:00;;;;;;;3.03;1.10;;;;;;;21.90;47.15;102007.88;5063814;28;20039;-61
2022/05/21 10:13:40;;;;;;;3.97;1.48;;;;;;;21.92;46.98;102005.84;5075411;28;20062;-61
2022/05/21 10:16:24;;;;;;;1.60;1.08;;;;;;;21.95;46.88;102005.50;5083987;28;20024;-61
2022/05/21 10:18:54;;;;;;;5.35;1.95;;;;;;;21.96;47.13;102007.22;5084651;28;20120;-61
2022/05/21 10:21:28;;;;;;;2.22;0.93;;;;;;;21.99;47.13;102016.03;5084139;28;20028;-61
2022/05/21 10:23:55;;;;;;;3.33;0.93;;;;;;;;;;5082882;28;20067;-61
2022/05/21 10:26:48;;;;;;;2.70;1.00;;;;;;;21.95;46.86;102016.34;5081929;28;20024;-60
2022/05/21 10:29:57;;;;;;;2.90;1.10;;;;;;;21.94;47.28;102016.50;5077219;28;20024;-60
2022/05/21 10:32:32;;;;;;;2.00;1.00;;;;;;;21.92;47.31;102015.84;5066198;28;20029;-60
2022/05/21 10:35:27;;;;;;;4.25;1.42;;;;;;;21.90;47.26;102010.56;5084360;28;20530;-61
2022/05/21 10:38:07;;;;;;;2.08;1.15;;;;;;;21.90;47.31;102012.44;5078010;28;20036;-60
2022/05/21 10:40:43;;;;;;;2.78;1.33;;;;;;;21.88;47.33;102020.72;5063343;28;20084;-61
2022/05/21 10:43:28;;;;;;;2.63;1.00;;;;;;;21.87;47.28;102021.72;5062684;28;20032;-61
2022/05/21 10:46:08;;;;;;;3.20;1.35;;;;;;;21.90;47.20;102010.56;5081148;28;20039;-60
2022/05/21 10:48:43;;;;;;;3.63;0.93;;;;;;;21.90;46.97;102007.00;5083735;28;20029;-61
2022/05/21 10:51:27;;;;;;;2.92;0.95;;;;;;;21.90;47.01;102013.28;5076016;28;20059;-61
2022/05/21 10:54:16;;;;;;;3.50;1.17;;;;;;;21.91;47.33;102014.13;5083371;28;20489;-60
2022/05/21 10:57:07;;;;;;;2.38;0.90;;;;;;;21.88;47.29;102018.03;5082261;28;20058;-60
2022/05/21 10:59:40;;;;;;;1.98;0.95;;;;;;;21.89;47.12;102019.72;5049316;28;20037;-60
2022/05/21 11:02:17;;;;;;;4.97;1.10;;;;;;;21.87;47.10;102032.53;5081651;28;20033;-61
2022/05/21 11:05:20;;;;;;;4.90;1.10;;;;;;;21.87;47.11;102023.56;5083998;28;20031;-61
2022/05/21 11:07:57;;;;;;;2.15;1.23;;;;;;;21.87;47.23;102027.13;5082914;28;20024;-61
2022/05/21 11:10:31;;;;;;;2.55;1.33;;;;;;;21.84;47.13;102022.06;5082969;28;20059;-61
2022/05/21 11:13:06;;;;;;;2.22;0.98;;;;;;;21.89;47.38;102030.53;5077475;28;20020;-61
2022/05/21 11:15:41;;;;;;;2.45;1.23;;;;;;;21.90;47.07;102037.66;5082005;28;20025;-61
2022/05/21 11:18:19;;;;;;;2.67;0.90;;;;;;;21.85;47.19;102028.31;5081882;28;20093;-61
2022/05/21 11:20:59;;;;;;;1.77;0.90;;;;;;;21.87;47.23;102032.53;5084160;28;20035;-61
2022/05/21 11:23:31;;;;;;;2.88;1.08;;;;;;;21.86;47.41;102033.56;5067669;28;20033;-61
2022/05/21 11:26:28;;;;;;;1.60;0.77;;;;;;;21.88;47.51;102031.56;5063396;28;20024;-61
2022/05/21 11:28:59;;;;;;;1.98;0.90;;;;;;;21.88;47.13;102034.25;5062511;28;20478;-61
2022/05/21 11:39:43;;;;;;;1.20;0.80;;;;;;;21.93;46.98;102036.47;5082978;28;20047;-61
2022/05/21 11:42:14;;;;;;;2.83;0.90;;;;;;;21.94;47.37;102036.31;5083231;28;20032;-61
2022/05/21 11:45:03;;;;;;;2.92;0.98;;;;;;;21.93;47.30;102033.78;5084188;28;20078;-61
2022/05/21 11:47:54;;;;;;;2.40;0.85;;;;;;;21.93;47.39;102045.47;5101863;28;20024;-61
2022/05/21 11:50:27;;;;;;;2.08;0.80;;;;;;;21.92;47.06;102046.47;5066773;28;20084;-61
2022/05/21 11:53:04;;;;;;;2.40;0.77;;;;;;;21.91;47.15;102047.47;5081239;28;20051;-61
2022/05/21 11:55:51;;;;;;;4.05;1.38;;;;;;;21.93;47.24;102044.59;5083034;28;20041;-61
2022/05/21 11:58:16;;;;;;;2.65;0.70;;;;;;;21.92;47.26;102037.50;5079466;28;20033;-61
2022/05/21 12:00:44;;;;;;;1.73;0.85;;;;;;;21.98;47.16;102046.84;5083643;28;20032;-61
2022/05/21 12:03:15;;;;;;;1.55;0.85;;;;;;;21.99;47.25;102052.06;5082626;28;20035;-61
2022/05/21 12:05:50;;;;;;;1.30;0.65;;;;;;;22.03;46.94;102042.63;5083659;28;20131;-61
2022/05/21 12:08:34;;;;;;;6.45;1.50;;;;;;;22.07;46.94;102045.84;5082345;28;20049;-61
2022/05/21 12:11:11;;;;;;;1.63;0.80;;;;;;;22.10;47.02;102034.72;5082727;28;20043;-61
2022/05/21 12:13:39;;;;;;;1.45;0.70;;;;;;;22.12;47.04;102041.66;5082574;28;20036;-61